sensor_id;sensor_type;location;lat;lon;timestamp;P1;durP1;ratioP1;P2;durP2;ratioP2
18445;SDS011;9352;50.888;4.466;2022-07-04T00:00:02;7.55;;;2.53;;
18445;SDS011;9352;50.888;4.466;2022-07-04T00:02:30;4.25;;;2.25;;
18445;SDS011;9352;50.888;4.466;2022-07-04T00:04:57;9.15;;;2.58;;
18445;SDS011;9352;50.888;4.466;2022-07-04T00:07:24;4.13;;;2.05;;
18445;SDS011;9352;50.888;4.466;2022-07-04T00:09:51;8.85;;;2.30;;
18445;SDS011;9352;50.888;4.466;2022-07-04T00:12:18;2.88;;;2.05;;
18445;SDS011;9352;50.888;4.466;2022-07-04T00:14:46;7.95;;;2.42;;
18445;SDS011;9352;50.888;4.466;2022-07-04T00:17:13;4.63;;;2.15;;
18445;SDS011;9352;50.888;4.466;2022-07-04T00:19:40;5.93;;;2.10;;
18445;SDS011;9352;50.888;4.466;2022-07-04T00:22:07;6.15;;;2.22;;
18445;SDS011;9352;50.888;4.466;2022-07-04T00:24:34;9.18;;;2.53;;
18445;SDS011;9352;50.888;4.466;2022-07-04T00:27:01;11.05;;;2.45;;
18445;SDS011;9352;50.888;4.466;2022-07-04T00:29:27;4.38;;;2.28;;
18445;SDS011;9352;50.888;4.466;2022-07-04T00:31:56;6.97;;;2.33;;
18445;SDS011;9352;50.888;4.466;2022-07-04T00:34:23;4.60;;;2.33;;
18445;SDS011;9352;50.888;4.466;2022-07-04T00:36:50;8.27;;;2.58;;
18445;SDS011;9352;50.888;4.466;2022-07-04T00:39:17;6.25;;;2.50;;
18445;SDS011;9352;50.888;4.466;2022-07-04T00:41:44;10.30;;;2.72;;
18445;SDS011;9352;50.888;4.466;2022-07-04T00:44:11;7.55;;;2.90;;
18445;SDS011;9352;50.888;4.466;2022-07-04T00:46:40;6.80;;;2.83;;
18445;SDS011;9352;50.888;4.466;2022-07-04T00:49:10;4.22;;;2.58;;
18445;SDS011;9352;50.888;4.466;2022-07-04T00:51:38;4.25;;;2.25;;
18445;SDS011;9352;50.888;4.466;2022-07-04T00:54:05;10.93;;;2.70;;
18445;SDS011;9352;50.888;4.466;2022-07-04T00:56:34;4.00;;;2.13;;
18445;SDS011;9352;50.888;4.466;2022-07-04T00:59:02;8.18;;;2.65;;
18445;SDS011;9352;50.888;4.466;2022-07-04T01:01:29;5.30;;;2.40;;
18445;SDS011;9352;50.888;4.466;2022-07-04T01:03:57;6.45;;;2.20;;
18445;SDS011;9352;50.888;4.466;2022-07-04T01:06:25;12.98;;;2.70;;
18445;SDS011;9352;50.888;4.466;2022-07-04T01:08:52;9.43;;;2.45;;
18445;SDS011;9352;50.888;4.466;2022-07-04T01:11:19;6.30;;;2.25;;
18445;SDS011;9352;50.888;4.466;2022-07-04T01:13:46;8.57;;;2.63;;
18445;SDS011;9352;50.888;4.466;2022-07-04T01:16:13;7.43;;;2.47;;
18445;SDS011;9352;50.888;4.466;2022-07-04T01:18:40;5.00;;;2.20;;
18445;SDS011;9352;50.888;4.466;2022-07-04T01:21:08;4.25;;;2.20;;
18445;SDS011;9352;50.888;4.466;2022-07-04T01:23:36;4.28;;;2.30;;
18445;SDS011;9352;50.888;4.466;2022-07-04T01:26:04;4.35;;;2.42;;
18445;SDS011;9352;50.888;4.466;2022-07-04T01:28:31;7.00;;;2.20;;
18445;SDS011;9352;50.888;4.466;2022-07-04T01:30:58;4.93;;;2.20;;
18445;SDS011;9352;50.888;4.466;2022-07-04T01:33:25;5.15;;;2.30;;
18445;SDS011;9352;50.888;4.466;2022-07-04T01:35:52;4.53;;;2.20;;
18445;SDS011;9352;50.888;4.466;2022-07-04T01:38:21;3.28;;;2.40;;
18445;SDS011;9352;50.888;4.466;2022-07-04T01:40:48;6.13;;;2.40;;
18445;SDS011;9352;50.888;4.466;2022-07-04T01:43:15;7.38;;;2.33;;
18445;SDS011;9352;50.888;4.466;2022-07-04T01:45:42;4.13;;;2.45;;
18445;SDS011;9352;50.888;4.466;2022-07-04T01:48:10;4.50;;;2.30;;
18445;SDS011;9352;50.888;4.466;2022-07-04T01:50:38;5.55;;;2.78;;
18445;SDS011;9352;50.888;4.466;2022-07-04T01:53:05;4.82;;;2.45;;
18445;SDS011;9352;50.888;4.466;2022-07-04T01:55:33;4.00;;;2.30;;
18445;SDS011;9352;50.888;4.466;2022-07-04T01:58:00;2.92;;;2.20;;
18445;SDS011;9352;50.888;4.466;2022-07-04T02:00:27;3.97;;;2.60;;
18445;SDS011;9352;50.888;4.466;2022-07-04T02:03:12;6.05;;;2.92;;
18445;SDS011;9352;50.888;4.466;2022-07-04T02:05:39;4.57;;;2.45;;
18445;SDS011;9352;50.888;4.466;2022-07-04T02:08:06;4.13;;;2.58;;
18445;SDS011;9352;50.888;4.466;2022-07-04T02:10:34;2.35;;;2.10;;
18445;SDS011;9352;50.888;4.466;2022-07-04T02:13:01;5.32;;;2.35;;
18445;SDS011;9352;50.888;4.466;2022-07-04T02:15:28;4.63;;;2.42;;
18445;SDS011;9352;50.888;4.466;2022-07-04T02:17:56;7.68;;;2.65;;
18445;SDS011;9352;50.888;4.466;2022-07-04T02:20:23;3.15;;;2.25;;
18445;SDS011;9352;50.888;4.466;2022-07-04T02:22:50;3.85;;;2.40;;
18445;SDS011;9352;50.888;4.466;2022-07-04T02:25:18;4.53;;;2.28;;
18445;SDS011;9352;50.888;4.466;2022-07-04T02:27:46;8.07;;;2.47;;
18445;SDS011;9352;50.888;4.466;2022-07-04T02:30:13;4.10;;;2.35;;
18445;SDS011;9352;50.888;4.466;2022-07-04T02:32:40;3.85;;;2.33;;
18445;SDS011;9352;50.888;4.466;2022-07-04T02:35:08;5.82;;;2.50;;
18445;SDS011;9352;50.888;4.466;2022-07-04T02:37:36;3.92;;;2.42;;
18445;SDS011;9352;50.888;4.466;2022-07-04T02:40:03;4.05;;;2.42;;
18445;SDS011;9352;50.888;4.466;2022-07-04T02:42:31;4.38;;;2.40;;
18445;SDS011;9352;50.888;4.466;2022-07-04T02:45:00;2.35;;;2.15;;
18445;SDS011;9352;50.888;4.466;2022-07-04T02:47:27;6.28;;;2.63;;
18445;SDS011;9352;50.888;4.466;2022-07-04T02:49:54;3.58;;;2.05;;
18445;SDS011;9352;50.888;4.466;2022-07-04T02:52:21;5.43;;;2.63;;
18445;SDS011;9352;50.888;4.466;2022-07-04T02:54:48;3.88;;;2.50;;
18445;SDS011;9352;50.888;4.466;2022-07-04T02:57:17;4.78;;;2.58;;
18445;SDS011;9352;50.888;4.466;2022-07-04T02:59:45;5.68;;;2.20;;
18445;SDS011;9352;50.888;4.466;2022-07-04T03:02:13;2.63;;;2.42;;
18445;SDS011;9352;50.888;4.466;2022-07-04T03:04:40;6.53;;;2.60;;
18445;SDS011;9352;50.888;4.466;2022-07-04T03:07:07;4.15;;;2.20;;
18445;SDS011;9352;50.888;4.466;2022-07-04T03:09:34;4.47;;;2.38;;
18445;SDS011;9352;50.888;4.466;2022-07-04T03:12:01;6.25;;;2.50;;
18445;SDS011;9352;50.888;4.466;2022-07-04T03:14:28;5.30;;;2.33;;
18445;SDS011;9352;50.888;4.466;2022-07-04T03:16:54;9.43;;;2.25;;
18445;SDS011;9352;50.888;4.466;2022-07-04T03:19:23;8.23;;;2.50;;
18445;SDS011;9352;50.888;4.466;2022-07-04T03:21:50;4.13;;;2.38;;
18445;SDS011;9352;50.888;4.466;2022-07-04T03:24:16;5.95;;;2.33;;
18445;SDS011;9352;50.888;4.466;2022-07-04T03:26:44;6.15;;;2.42;;
18445;SDS011;9352;50.888;4.466;2022-07-04T03:29:10;5.30;;;2.38;;
18445;SDS011;9352;50.888;4.466;2022-07-04T03:31:37;8.63;;;2.90;;
18445;SDS011;9352;50.888;4.466;2022-07-04T03:34:04;9.10;;;2.33;;
18445;SDS011;9352;50.888;4.466;2022-07-04T03:36:32;3.20;;;2.25;;
18445;SDS011;9352;50.888;4.466;2022-07-04T03:38:59;8.75;;;2.80;;
18445;SDS011;9352;50.888;4.466;2022-07-04T03:41:26;5.60;;;2.75;;
18445;SDS011;9352;50.888;4.466;2022-07-04T03:43:53;3.60;;;2.53;;
18445;SDS011;9352;50.888;4.466;2022-07-04T03:46:20;6.88;;;2.28;;
18445;SDS011;9352;50.888;4.466;2022-07-04T03:48:47;10.27;;;2.53;;
18445;SDS011;9352;50.888;4.466;2022-07-04T03:51:13;6.13;;;2.30;;
18445;SDS011;9352;50.888;4.466;2022-07-04T03:53:42;5.95;;;2.15;;
18445;SDS011;9352;50.888;4.466;2022-07-04T03:56:09;3.75;;;2.20;;
18445;SDS011;9352;50.888;4.466;2022-07-04T03:58:36;7.80;;;2.80;;
18445;SDS011;9352;50.888;4.466;2022-07-04T04:01:03;4.82;;;2.30;;
18445;SDS011;9352;50.888;4.466;2022-07-04T04:03:30;8.68;;;2.45;;
18445;SDS011;9352;50.888;4.466;2022-07-04T04:06:14;7.65;;;2.42;;
18445;SDS011;9352;50.888;4.466;2022-07-04T04:08:42;8.52;;;2.33;;
18445;SDS011;9352;50.888;4.466;2022-07-04T04:11:09;9.27;;;2.40;;
18445;SDS011;9352;50.888;4.466;2022-07-04T04:13:36;18.95;;;2.58;;
18445;SDS011;9352;50.888;4.466;2022-07-04T04:16:03;7.95;;;2.35;;
18445;SDS011;9352;50.888;4.466;2022-07-04T04:18:30;8.80;;;2.60;;
18445;SDS011;9352;50.888;4.466;2022-07-04T04:20:57;8.90;;;2.53;;
18445;SDS011;9352;50.888;4.466;2022-07-04T04:23:24;10.05;;;2.80;;
18445;SDS011;9352;50.888;4.466;2022-07-04T04:25:52;3.97;;;2.10;;
18445;SDS011;9352;50.888;4.466;2022-07-04T04:28:19;10.23;;;2.38;;
18445;SDS011;9352;50.888;4.466;2022-07-04T04:30:46;7.10;;;2.28;;
18445;SDS011;9352;50.888;4.466;2022-07-04T04:33:13;6.30;;;2.58;;
18445;SDS011;9352;50.888;4.466;2022-07-04T04:35:40;6.55;;;2.78;;
18445;SDS011;9352;50.888;4.466;2022-07-04T04:38:06;5.70;;;2.20;;
18445;SDS011;9352;50.888;4.466;2022-07-04T04:40:33;5.40;;;2.20;;
18445;SDS011;9352;50.888;4.466;2022-07-04T04:43:01;3.38;;;1.80;;
18445;SDS011;9352;50.888;4.466;2022-07-04T04:45:28;9.07;;;2.35;;
18445;SDS011;9352;50.888;4.466;2022-07-04T04:47:55;6.20;;;2.25;;
18445;SDS011;9352;50.888;4.466;2022-07-04T04:50:22;3.95;;;2.20;;
18445;SDS011;9352;50.888;4.466;2022-07-04T04:52:49;5.55;;;2.17;;
18445;SDS011;9352;50.888;4.466;2022-07-04T04:55:16;4.55;;;2.20;;
18445;SDS011;9352;50.888;4.466;2022-07-04T04:57:43;6.05;;;2.53;;
18445;SDS011;9352;50.888;4.466;2022-07-04T05:00:12;8.70;;;2.05;;
18445;SDS011;9352;50.888;4.466;2022-07-04T05:02:39;13.45;;;2.38;;
18445;SDS011;9352;50.888;4.466;2022-07-04T05:05:06;9.02;;;2.30;;
18445;SDS011;9352;50.888;4.466;2022-07-04T05:07:33;6.43;;;2.50;;
18445;SDS011;9352;50.888;4.466;2022-07-04T05:10:01;6.80;;;2.08;;
18445;SDS011;9352;50.888;4.466;2022-07-04T05:12:28;9.05;;;2.38;;
18445;SDS011;9352;50.888;4.466;2022-07-04T05:14:55;7.38;;;2.10;;
18445;SDS011;9352;50.888;4.466;2022-07-04T05:17:23;7.32;;;2.28;;
18445;SDS011;9352;50.888;4.466;2022-07-04T05:19:50;7.55;;;2.47;;
18445;SDS011;9352;50.888;4.466;2022-07-04T05:22:17;6.10;;;2.35;;
18445;SDS011;9352;50.888;4.466;2022-07-04T05:24:44;6.68;;;2.10;;
18445;SDS011;9352;50.888;4.466;2022-07-04T05:27:11;5.25;;;1.80;;
18445;SDS011;9352;50.888;4.466;2022-07-04T05:29:38;8.27;;;1.85;;
18445;SDS011;9352;50.888;4.466;2022-07-04T05:32:05;4.38;;;1.90;;
18445;SDS011;9352;50.888;4.466;2022-07-04T05:34:34;5.68;;;1.77;;
18445;SDS011;9352;50.888;4.466;2022-07-04T05:37:01;5.40;;;1.92;;
18445;SDS011;9352;50.888;4.466;2022-07-04T05:39:29;7.18;;;1.92;;
18445;SDS011;9352;50.888;4.466;2022-07-04T05:41:56;2.95;;;2.00;;
18445;SDS011;9352;50.888;4.466;2022-07-04T05:44:23;3.40;;;1.77;;
18445;SDS011;9352;50.888;4.466;2022-07-04T05:46:50;4.50;;;2.13;;
18445;SDS011;9352;50.888;4.466;2022-07-04T05:49:17;3.80;;;1.90;;
18445;SDS011;9352;50.888;4.466;2022-07-04T05:51:45;6.55;;;1.80;;
18445;SDS011;9352;50.888;4.466;2022-07-04T05:54:12;9.25;;;2.58;;
18445;SDS011;9352;50.888;4.466;2022-07-04T05:56:39;7.47;;;2.10;;
18445;SDS011;9352;50.888;4.466;2022-07-04T05:59:07;4.07;;;2.47;;
18445;SDS011;9352;50.888;4.466;2022-07-04T06:01:35;3.13;;;2.40;;
18445;SDS011;9352;50.888;4.466;2022-07-04T06:04:02;3.70;;;1.60;;
18445;SDS011;9352;50.888;4.466;2022-07-04T06:06:30;4.45;;;1.70;;
18445;SDS011;9352;50.888;4.466;2022-07-04T06:08:58;6.22;;;1.90;;
18445;SDS011;9352;50.888;4.466;2022-07-04T06:11:25;7.60;;;1.88;;
18445;SDS011;9352;50.888;4.466;2022-07-04T06:13:52;3.13;;;1.67;;
18445;SDS011;9352;50.888;4.466;2022-07-04T06:16:19;37.00;;;3.35;;
18445;SDS011;9352;50.888;4.466;2022-07-04T06:18:46;5.07;;;1.83;;
18445;SDS011;9352;50.888;4.466;2022-07-04T06:21:13;7.95;;;1.40;;
18445;SDS011;9352;50.888;4.466;2022-07-04T06:23:40;3.20;;;1.40;;
18445;SDS011;9352;50.888;4.466;2022-07-04T06:26:08;8.00;;;1.75;;
18445;SDS011;9352;50.888;4.466;2022-07-04T06:28:35;4.30;;;1.65;;
18445;SDS011;9352;50.888;4.466;2022-07-04T06:31:02;8.20;;;1.70;;
18445;SDS011;9352;50.888;4.466;2022-07-04T06:33:29;6.00;;;2.00;;
18445;SDS011;9352;50.888;4.466;2022-07-04T06:35:56;3.50;;;1.38;;
18445;SDS011;9352;50.888;4.466;2022-07-04T06:38:23;4.72;;;1.50;;
18445;SDS011;9352;50.888;4.466;2022-07-04T06:40:51;7.25;;;1.70;;
18445;SDS011;9352;50.888;4.466;2022-07-04T06:43:21;6.45;;;1.42;;
18445;SDS011;9352;50.888;4.466;2022-07-04T06:45:48;3.28;;;1.70;;
18445;SDS011;9352;50.888;4.466;2022-07-04T06:48:15;6.75;;;1.77;;
18445;SDS011;9352;50.888;4.466;2022-07-04T06:50:42;7.88;;;1.80;;
18445;SDS011;9352;50.888;4.466;2022-07-04T06:53:10;4.60;;;1.60;;
18445;SDS011;9352;50.888;4.466;2022-07-04T06:55:36;10.93;;;1.63;;
18445;SDS011;9352;50.888;4.466;2022-07-04T06:58:04;5.68;;;1.85;;
18445;SDS011;9352;50.888;4.466;2022-07-04T07:00:33;8.18;;;1.52;;
18445;SDS011;9352;50.888;4.466;2022-07-04T07:03:01;6.15;;;1.70;;
18445;SDS011;9352;50.888;4.466;2022-07-04T07:05:28;13.00;;;1.65;;
18445;SDS011;9352;50.888;4.466;2022-07-04T07:07:55;9.05;;;1.65;;
18445;SDS011;9352;50.888;4.466;2022-07-04T07:10:22;4.90;;;1.55;;
18445;SDS011;9352;50.888;4.466;2022-07-04T07:12:50;11.77;;;1.52;;
18445;SDS011;9352;50.888;4.466;2022-07-04T07:15:17;3.05;;;1.48;;
18445;SDS011;9352;50.888;4.466;2022-07-04T07:17:46;5.63;;;1.40;;
18445;SDS011;9352;50.888;4.466;2022-07-04T07:20:13;6.57;;;1.73;;
18445;SDS011;9352;50.888;4.466;2022-07-04T07:22:40;7.00;;;1.63;;
18445;SDS011;9352;50.888;4.466;2022-07-04T07:25:08;4.70;;;1.65;;
18445;SDS011;9352;50.888;4.466;2022-07-04T07:27:35;3.22;;;1.27;;
18445;SDS011;9352;50.888;4.466;2022-07-04T07:30:02;5.00;;;1.70;;
18445;SDS011;9352;50.888;4.466;2022-07-04T07:32:29;9.52;;;2.08;;
18445;SDS011;9352;50.888;4.466;2022-07-04T07:34:58;3.10;;;1.40;;
18445;SDS011;9352;50.888;4.466;2022-07-04T07:37:25;3.75;;;1.48;;
18445;SDS011;9352;50.888;4.466;2022-07-04T07:39:52;4.30;;;1.20;;
18445;SDS011;9352;50.888;4.466;2022-07-04T07:42:19;7.00;;;1.35;;
18445;SDS011;9352;50.888;4.466;2022-07-04T07:44:46;5.65;;;1.35;;
18445;SDS011;9352;50.888;4.466;2022-07-04T07:47:13;3.80;;;1.25;;
18445;SDS011;9352;50.888;4.466;2022-07-04T07:49:40;4.00;;;1.27;;
18445;SDS011;9352;50.888;4.466;2022-07-04T07:52:09;3.03;;;1.42;;
18445;SDS011;9352;50.888;4.466;2022-07-04T07:54:36;2.88;;;1.50;;
18445;SDS011;9352;50.888;4.466;2022-07-04T07:57:03;7.40;;;1.40;;
18445;SDS011;9352;50.888;4.466;2022-07-04T07:59:30;3.70;;;1.00;;
18445;SDS011;9352;50.888;4.466;2022-07-04T08:01:57;5.10;;;1.42;;
18445;SDS011;9352;50.888;4.466;2022-07-04T08:04:24;5.72;;;1.30;;
18445;SDS011;9352;50.888;4.466;2022-07-04T08:07:02;5.55;;;2.03;;
18445;SDS011;9352;50.888;4.466;2022-07-04T08:09:31;1.75;;;1.10;;
18445;SDS011;9352;50.888;4.466;2022-07-04T08:11:59;2.40;;;1.20;;
18445;SDS011;9352;50.888;4.466;2022-07-04T08:14:27;2.83;;;1.10;;
18445;SDS011;9352;50.888;4.466;2022-07-04T08:16:54;5.25;;;1.08;;
18445;SDS011;9352;50.888;4.466;2022-07-04T08:19:21;1.27;;;1.10;;
18445;SDS011;9352;50.888;4.466;2022-07-04T08:21:49;2.55;;;1.30;;
18445;SDS011;9352;50.888;4.466;2022-07-04T08:24:16;5.05;;;1.20;;
18445;SDS011;9352;50.888;4.466;2022-07-04T08:26:44;1.15;;;1.00;;
18445;SDS011;9352;50.888;4.466;2022-07-04T08:29:13;2.10;;;0.93;;
18445;SDS011;9352;50.888;4.466;2022-07-04T08:31:40;1.92;;;1.30;;
18445;SDS011;9352;50.888;4.466;2022-07-04T08:34:06;4.05;;;1.10;;
18445;SDS011;9352;50.888;4.466;2022-07-04T08:36:33;4.53;;;1.80;;
18445;SDS011;9352;50.888;4.466;2022-07-04T08:39:00;2.13;;;0.90;;
18445;SDS011;9352;50.888;4.466;2022-07-04T08:41:27;6.22;;;0.98;;
18445;SDS011;9352;50.888;4.466;2022-07-04T08:44:01;2.38;;;1.17;;
18445;SDS011;9352;50.888;4.466;2022-07-04T08:46:29;3.67;;;1.17;;
18445;SDS011;9352;50.888;4.466;2022-07-04T08:48:58;3.15;;;1.30;;
18445;SDS011;9352;50.888;4.466;2022-07-04T08:51:31;2.38;;;1.10;;
18445;SDS011;9352;50.888;4.466;2022-07-04T08:54:08;3.50;;;1.20;;
18445;SDS011;9352;50.888;4.466;2022-07-04T08:56:49;9.68;;;1.50;;
18445;SDS011;9352;50.888;4.466;2022-07-04T08:59:35;3.22;;;1.20;;
18445;SDS011;9352;50.888;4.466;2022-07-04T09:02:03;3.90;;;1.27;;
18445;SDS011;9352;50.888;4.466;2022-07-04T09:04:31;5.45;;;1.42;;
18445;SDS011;9352;50.888;4.466;2022-07-04T09:06:58;4.53;;;1.40;;
18445;SDS011;9352;50.888;4.466;2022-07-04T09:09:26;7.85;;;1.33;;
18445;SDS011;9352;50.888;4.466;2022-07-04T09:11:53;1.85;;;1.35;;
18445;SDS011;9352;50.888;4.466;2022-07-04T09:14:20;8.15;;;1.38;;
18445;SDS011;9352;50.888;4.466;2022-07-04T09:16:48;3.53;;;1.60;;
18445;SDS011;9352;50.888;4.466;2022-07-04T09:19:19;9.82;;;1.42;;
18445;SDS011;9352;50.888;4.466;2022-07-04T09:21:46;4.45;;;1.65;;
18445;SDS011;9352;50.888;4.466;2022-07-04T09:24:14;5.43;;;1.40;;
18445;SDS011;9352;50.888;4.466;2022-07-04T09:26:43;7.85;;;1.60;;
18445;SDS011;9352;50.888;4.466;2022-07-04T09:29:11;8.90;;;1.63;;
18445;SDS011;9352;50.888;4.466;2022-07-04T09:31:39;4.75;;;1.42;;
18445;SDS011;9352;50.888;4.466;2022-07-04T09:34:07;9.13;;;1.50;;
18445;SDS011;9352;50.888;4.466;2022-07-04T09:36:35;7.32;;;1.42;;
18445;SDS011;9352;50.888;4.466;2022-07-04T09:39:12;4.40;;;1.35;;
18445;SDS011;9352;50.888;4.466;2022-07-04T09:41:50;5.00;;;2.05;;
18445;SDS011;9352;50.888;4.466;2022-07-04T09:44:21;5.25;;;1.50;;
18445;SDS011;9352;50.888;4.466;2022-07-04T09:46:49;8.57;;;1.70;;
18445;SDS011;9352;50.888;4.466;2022-07-04T09:49:19;3.10;;;1.40;;
18445;SDS011;9352;50.888;4.466;2022-07-04T09:51:47;7.45;;;1.50;;
18445;SDS011;9352;50.888;4.466;2022-07-04T09:54:16;6.60;;;1.55;;
18445;SDS011;9352;50.888;4.466;2022-07-04T09:56:53;3.42;;;1.40;;
18445;SDS011;9352;50.888;4.466;2022-07-04T09:59:21;3.80;;;1.40;;
18445;SDS011;9352;50.888;4.466;2022-07-04T10:01:49;6.53;;;1.88;;
18445;SDS011;9352;50.888;4.466;2022-07-04T10:04:18;6.82;;;2.00;;
18445;SDS011;9352;50.888;4.466;2022-07-04T10:06:46;5.20;;;1.88;;
18445;SDS011;9352;50.888;4.466;2022-07-04T10:09:14;2.65;;;1.90;;
18445;SDS011;9352;50.888;4.466;2022-07-04T10:11:43;3.08;;;1.50;;
18445;SDS011;9352;50.888;4.466;2022-07-04T10:14:11;3.65;;;1.90;;
18445;SDS011;9352;50.888;4.466;2022-07-04T10:16:39;2.40;;;1.70;;
18445;SDS011;9352;50.888;4.466;2022-07-04T10:19:07;4.38;;;1.48;;
18445;SDS011;9352;50.888;4.466;2022-07-04T10:21:36;4.75;;;1.42;;
18445;SDS011;9352;50.888;4.466;2022-07-04T10:24:03;4.82;;;1.40;;
18445;SDS011;9352;50.888;4.466;2022-07-04T10:26:30;3.85;;;1.77;;
18445;SDS011;9352;50.888;4.466;2022-07-04T10:28:58;4.32;;;1.60;;
18445;SDS011;9352;50.888;4.466;2022-07-04T10:31:25;3.13;;;1.40;;
18445;SDS011;9352;50.888;4.466;2022-07-04T10:33:54;1.60;;;1.50;;
18445;SDS011;9352;50.888;4.466;2022-07-04T10:36:23;7.40;;;1.80;;
18445;SDS011;9352;50.888;4.466;2022-07-04T10:38:55;6.32;;;1.60;;
18445;SDS011;9352;50.888;4.466;2022-07-04T10:41:25;2.30;;;1.23;;
18445;SDS011;9352;50.888;4.466;2022-07-04T10:43:54;2.75;;;1.77;;
18445;SDS011;9352;50.888;4.466;2022-07-04T10:46:25;5.15;;;1.60;;
18445;SDS011;9352;50.888;4.466;2022-07-04T10:48:57;4.07;;;1.48;;
18445;SDS011;9352;50.888;4.466;2022-07-04T10:51:32;2.22;;;1.55;;
18445;SDS011;9352;50.888;4.466;2022-07-04T10:54:10;2.45;;;1.50;;
18445;SDS011;9352;50.888;4.466;2022-07-04T10:56:40;6.93;;;1.90;;
18445;SDS011;9352;50.888;4.466;2022-07-04T10:59:09;5.43;;;1.70;;
18445;SDS011;9352;50.888;4.466;2022-07-04T11:01:37;4.55;;;1.70;;
18445;SDS011;9352;50.888;4.466;2022-07-04T11:04:05;2.90;;;1.63;;
18445;SDS011;9352;50.888;4.466;2022-07-04T11:06:51;3.55;;;1.60;;
18445;SDS011;9352;50.888;4.466;2022-07-04T11:09:21;4.60;;;1.50;;
18445;SDS011;9352;50.888;4.466;2022-07-04T11:11:49;2.22;;;1.38;;
18445;SDS011;9352;50.888;4.466;2022-07-04T11:14:31;7.18;;;1.38;;
18445;SDS011;9352;50.888;4.466;2022-07-04T11:17:02;2.17;;;1.75;;
18445;SDS011;9352;50.888;4.466;2022-07-04T11:19:29;4.97;;;1.75;;
18445;SDS011;9352;50.888;4.466;2022-07-04T11:21:56;3.20;;;1.63;;
18445;SDS011;9352;50.888;4.466;2022-07-04T11:24:25;3.13;;;1.40;;
18445;SDS011;9352;50.888;4.466;2022-07-04T11:26:52;5.45;;;1.50;;
18445;SDS011;9352;50.888;4.466;2022-07-04T11:29:20;2.65;;;1.40;;
18445;SDS011;9352;50.888;4.466;2022-07-04T11:31:48;2.97;;;1.50;;
18445;SDS011;9352;50.888;4.466;2022-07-04T11:34:16;2.65;;;1.60;;
18445;SDS011;9352;50.888;4.466;2022-07-04T11:36:44;3.90;;;1.77;;
18445;SDS011;9352;50.888;4.466;2022-07-04T11:39:12;6.72;;;1.60;;
18445;SDS011;9352;50.888;4.466;2022-07-04T11:41:45;1.95;;;1.60;;
18445;SDS011;9352;50.888;4.466;2022-07-04T11:44:32;4.18;;;1.80;;
18445;SDS011;9352;50.888;4.466;2022-07-04T11:47:18;1.90;;;1.70;;
18445;SDS011;9352;50.888;4.466;2022-07-04T11:49:47;4.00;;;1.98;;
18445;SDS011;9352;50.888;4.466;2022-07-04T11:52:16;1.65;;;1.55;;
18445;SDS011;9352;50.888;4.466;2022-07-04T11:54:44;4.80;;;1.60;;
18445;SDS011;9352;50.888;4.466;2022-07-04T11:57:14;5.13;;;1.85;;
18445;SDS011;9352;50.888;4.466;2022-07-04T11:59:50;3.80;;;1.70;;
18445;SDS011;9352;50.888;4.466;2022-07-04T12:02:21;3.58;;;1.70;;
18445;SDS011;9352;50.888;4.466;2022-07-04T12:04:49;3.88;;;1.95;;
18445;SDS011;9352;50.888;4.466;2022-07-04T12:07:16;4.47;;;1.55;;
18445;SDS011;9352;50.888;4.466;2022-07-04T12:09:44;3.38;;;1.73;;
18445;SDS011;9352;50.888;4.466;2022-07-04T12:12:14;2.53;;;2.00;;
18445;SDS011;9352;50.888;4.466;2022-07-04T12:14:56;3.28;;;1.65;;
18445;SDS011;9352;50.888;4.466;2022-07-04T12:17:31;6.28;;;2.10;;
18445;SDS011;9352;50.888;4.466;2022-07-04T12:19:59;2.38;;;1.63;;
18445;SDS011;9352;50.888;4.466;2022-07-04T12:22:29;2.83;;;1.80;;
18445;SDS011;9352;50.888;4.466;2022-07-04T12:24:57;5.60;;;2.00;;
18445;SDS011;9352;50.888;4.466;2022-07-04T12:27:27;5.53;;;1.83;;
18445;SDS011;9352;50.888;4.466;2022-07-04T12:29:54;2.67;;;1.58;;
18445;SDS011;9352;50.888;4.466;2022-07-04T12:32:24;4.30;;;1.70;;
18445;SDS011;9352;50.888;4.466;2022-07-04T12:35:10;4.88;;;1.98;;
18445;SDS011;9352;50.888;4.466;2022-07-04T12:38:01;4.10;;;1.70;;
18445;SDS011;9352;50.888;4.466;2022-07-04T12:40:29;2.88;;;1.98;;
18445;SDS011;9352;50.888;4.466;2022-07-04T12:42:57;5.45;;;1.60;;
18445;SDS011;9352;50.888;4.466;2022-07-04T12:45:25;2.55;;;1.50;;
18445;SDS011;9352;50.888;4.466;2022-07-04T12:48:01;1.83;;;1.45;;
18445;SDS011;9352;50.888;4.466;2022-07-04T12:50:28;2.92;;;1.50;;
18445;SDS011;9352;50.888;4.466;2022-07-04T12:52:55;3.15;;;1.40;;
18445;SDS011;9352;50.888;4.466;2022-07-04T12:55:22;4.05;;;1.60;;
18445;SDS011;9352;50.888;4.466;2022-07-04T12:57:53;5.28;;;1.73;;
18445;SDS011;9352;50.888;4.466;2022-07-04T13:00:22;4.05;;;1.80;;
18445;SDS011;9352;50.888;4.466;2022-07-04T13:02:49;3.00;;;1.50;;
18445;SDS011;9352;50.888;4.466;2022-07-04T13:05:16;1.65;;;1.55;;
18445;SDS011;9352;50.888;4.466;2022-07-04T13:07:43;2.75;;;1.40;;
18445;SDS011;9352;50.888;4.466;2022-07-04T13:10:10;1.40;;;1.00;;
18445;SDS011;9352;50.888;4.466;2022-07-04T13:12:36;2.42;;;1.35;;
18445;SDS011;9352;50.888;4.466;2022-07-04T13:15:04;1.50;;;1.40;;
18445;SDS011;9352;50.888;4.466;2022-07-04T13:17:33;6.43;;;1.33;;
18445;SDS011;9352;50.888;4.466;2022-07-04T13:20:00;1.17;;;1.17;;
18445;SDS011;9352;50.888;4.466;2022-07-04T13:22:28;1.35;;;1.20;;
18445;SDS011;9352;50.888;4.466;2022-07-04T13:24:55;1.75;;;1.10;;
18445;SDS011;9352;50.888;4.466;2022-07-04T13:27:25;1.30;;;1.20;;
18445;SDS011;9352;50.888;4.466;2022-07-04T13:29:53;3.88;;;1.40;;
18445;SDS011;9352;50.888;4.466;2022-07-04T13:32:20;2.15;;;1.38;;
18445;SDS011;9352;50.888;4.466;2022-07-04T13:34:49;1.70;;;1.60;;
18445;SDS011;9352;50.888;4.466;2022-07-04T13:37:16;1.50;;;1.30;;
18445;SDS011;9352;50.888;4.466;2022-07-04T13:39:43;1.63;;;1.27;;
18445;SDS011;9352;50.888;4.466;2022-07-04T13:42:10;5.18;;;1.50;;
18445;SDS011;9352;50.888;4.466;2022-07-04T13:44:38;1.75;;;1.25;;
18445;SDS011;9352;50.888;4.466;2022-07-04T13:47:05;6.70;;;1.80;;
18445;SDS011;9352;50.888;4.466;2022-07-04T13:49:32;3.53;;;1.35;;
18445;SDS011;9352;50.888;4.466;2022-07-04T13:52:00;1.90;;;1.40;;
18445;SDS011;9352;50.888;4.466;2022-07-04T13:54:27;6.57;;;1.48;;
18445;SDS011;9352;50.888;4.466;2022-07-04T13:56:53;1.50;;;1.40;;
18445;SDS011;9352;50.888;4.466;2022-07-04T13:59:20;2.70;;;1.40;;
18445;SDS011;9352;50.888;4.466;2022-07-04T14:01:47;1.55;;;1.33;;
18445;SDS011;9352;50.888;4.466;2022-07-04T14:04:15;1.40;;;1.30;;
18445;SDS011;9352;50.888;4.466;2022-07-04T14:06:42;4.18;;;1.45;;
18445;SDS011;9352;50.888;4.466;2022-07-04T14:09:10;5.75;;;1.52;;
18445;SDS011;9352;50.888;4.466;2022-07-04T14:11:37;1.88;;;1.45;;
18445;SDS011;9352;50.888;4.466;2022-07-04T14:14:04;5.22;;;1.80;;
18445;SDS011;9352;50.888;4.466;2022-07-04T14:16:30;2.60;;;1.45;;
18445;SDS011;9352;50.888;4.466;2022-07-04T14:18:57;1.48;;;1.40;;
18445;SDS011;9352;50.888;4.466;2022-07-04T14:21:24;4.13;;;1.63;;
18445;SDS011;9352;50.888;4.466;2022-07-04T14:23:51;2.55;;;1.60;;
18445;SDS011;9352;50.888;4.466;2022-07-04T14:26:20;1.73;;;1.58;;
18445;SDS011;9352;50.888;4.466;2022-07-04T14:28:50;2.50;;;2.10;;
18445;SDS011;9352;50.888;4.466;2022-07-04T14:31:17;4.57;;;1.63;;
18445;SDS011;9352;50.888;4.466;2022-07-04T14:33:44;1.85;;;1.60;;
18445;SDS011;9352;50.888;4.466;2022-07-04T14:36:11;3.05;;;1.63;;
18445;SDS011;9352;50.888;4.466;2022-07-04T14:38:38;3.47;;;1.85;;
18445;SDS011;9352;50.888;4.466;2022-07-04T14:41:05;2.38;;;1.60;;
18445;SDS011;9352;50.888;4.466;2022-07-04T14:43:39;5.72;;;1.70;;
18445;SDS011;9352;50.888;4.466;2022-07-04T14:46:07;3.08;;;1.50;;
18445;SDS011;9352;50.888;4.466;2022-07-04T14:48:34;4.78;;;1.60;;
18445;SDS011;9352;50.888;4.466;2022-07-04T14:51:02;4.10;;;1.50;;
18445;SDS011;9352;50.888;4.466;2022-07-04T14:53:29;4.72;;;1.48;;
18445;SDS011;9352;50.888;4.466;2022-07-04T14:55:56;2.38;;;1.60;;
18445;SDS011;9352;50.888;4.466;2022-07-04T14:58:23;2.47;;;1.60;;
18445;SDS011;9352;50.888;4.466;2022-07-04T15:00:51;1.30;;;1.23;;
18445;SDS011;9352;50.888;4.466;2022-07-04T15:03:18;5.47;;;2.00;;
18445;SDS011;9352;50.888;4.466;2022-07-04T15:05:44;2.33;;;1.58;;